Time;durP1;ratioP1;P1;durP2;ratioP2;P2;SDS_P1;SDS_P2;PMS_P1;PMS_P2;Temp;Humidity;BMP_temperature;BMP_pressure;BME280_temperature;BME280_humidity;BME280_pressure;Samples;Min_cycle;Max_cycle;Signal;HPM_P1;HPM_P2
2023/09/04 00:00:57;;;;;;;1.80;1.70;;;;;;;24.66;67.65;98512.97;5047075;28;20359;-27
2023/09/04 00:03:26;;;;;;;1.97;1.80;;;;;;;24.65;67.77;98518.97;5047558;28;20283;-29
2023/09/04 00:05:53;;;;;;;1.93;1.83;;;;;;;24.65;67.30;98521.53;5043576;28;20256;-28
2023/09/04 00:08:19;;;;;;;2.03;1.83;;;;;;;24.65;67.76;98525.78;5037203;28;20287;-27
2023/09/04 00:10:47;;;;;;;1.93;1.70;;;;;;;24.64;67.90;98522.34;5040289;28;20394;-27
2023/09/04 00:13:13;;;;;;;1.90;1.80;;;;;;;24.64;67.45;98519.75;5040034;28;20706;-28
2023/09/04 00:15:40;;;;;;;2.13;1.93;;;;;;;24.64;67.78;98519.75;5049983;28;20197;-27
2023/09/04 00:18:07;;;;;;;2.10;1.90;;;;;;;24.66;68.06;98524.97;5050855;28;20270;-27
2023/09/04 00:20:33;;;;;;;2.87;1.93;;;;;;;24.65;67.62;98523.22;5050340;28;20561;-29
2023/09/04 00:23:00;;;;;;;2.00;1.80;;;;;;;24.65;67.78;98536.94;5051620;28;20617;-27
2023/09/04 00:25:27;;;;;;;1.80;1.70;;;;;;;24.65;68.03;98536.94;5041333;28;20574;-37
2023/09/04 00:27:55;;;;;;;2.40;1.70;;;;;;;24.64;67.68;98537.75;5036547;28;20220;-30
2023/09/04 00:30:23;;;;;;;1.90;1.80;;;;;;;24.64;67.99;98532.63;5043639;28;20205;-27
2023/09/04 00:32:50;;;;;;;1.90;1.70;;;;;;;24.65;67.55;98536.06;5042060;28;20221;-28
2023/09/04 00:35:17;;;;;;;2.00;1.90;;;;;;;24.64;67.87;98527.47;5039464;28;20198;-27
2023/09/04 00:37:43;;;;;;;2.03;1.90;;;;;;;24.64;67.71;98527.47;5043127;28;20656;-27
2023/09/04 00:40:10;;;;;;;1.80;1.70;;;;;;;24.66;67.72;98535.28;5051341;28;20394;-27
2023/09/04 00:42:36;;;;;;;2.27;2.07;;;;;;;24.65;67.91;98531.81;5048980;28;20205;-27
2023/09/04 00:45:04;;;;;;;2.10;1.90;;;;;;;24.65;67.51;98526.66;5039062;28;20740;-27
2023/09/04 00:47:31;;;;;;;1.70;1.60;;;;;;;24.64;67.63;98522.34;5040089;28;20249;-28
2023/09/04 00:49:57;;;;;;;2.43;1.90;;;;;;;24.65;67.91;98523.22;5029487;28;20197;-27
2023/09/04 00:52:24;;;;;;;1.90;1.80;;;;;;;24.65;67.60;98520.63;5039625;28;20263;-27
2023/09/04 00:54:51;;;;;;;1.70;1.60;;;;;;;24.64;68.09;98518.88;5031596;28;20303;-29
2023/09/04 00:57:18;;;;;;;1.73;1.63;;;;;;;24.63;67.62;98518.00;5032392;28;20259;-27
2023/09/04 00:59:45;;;;;;;1.77;1.60;;;;;;;24.60;68.13;98514.47;5049954;28;20651;-27
2023/09/04 01:02:12;;;;;;;1.90;1.70;;;;;;;24.60;68.27;98511.91;5028443;28;20645;-28
2023/09/04 01:04:39;;;;;;;3.40;1.90;;;;;;;24.61;68.19;98513.63;5025938;28;20287;-29
2023/09/04 01:07:06;;;;;;;1.97;1.87;;;;;;;24.61;68.06;98511.94;5051033;28;20263;-28
2023/09/04 01:09:32;;;;;;;1.90;1.80;;;;;;;24.59;67.89;98505.88;5046742;28;20228;-30
2023/09/04 01:12:02;;;;;;;1.90;1.80;;;;;;;24.60;67.76;98507.59;5050051;28;20205;-28
2023/09/04 01:14:28;;;;;;;1.83;1.73;;;;;;;24.60;68.21;98506.75;5050522;28;20671;-27
2023/09/04 01:16:55;;;;;;;1.90;1.70;;;;;;;24.60;68.28;98499.91;5032857;28;20205;-27
2023/09/04 01:19:22;;;;;;;1.90;1.80;;;;;;;24.57;68.16;98496.38;5032441;28;20231;-29
2023/09/04 01:21:48;;;;;;;2.23;1.87;;;;;;;24.60;68.43;98505.03;5013443;28;20292;-27
2023/09/04 01:24:15;;;;;;;1.83;1.73;;;;;;;24.59;68.29;98502.41;5050334;28;20247;-27
2023/09/04 01:26:50;;;;;;;1.90;1.80;;;;;;;24.59;68.49;98500.72;5049281;28;20659;-27
2023/09/04 01:29:25;;;;;;;1.77;1.67;;;;;;;24.60;68.40;98504.19;5040535;28;20271;-27
2023/09/04 01:32:01;;;;;;;1.90;1.80;;;;;;;24.60;68.00;98511.91;5014994;28;20304;-29
2023/09/04 01:34:30;;;;;;;1.90;1.80;;;;;;;24.61;68.35;98508.50;5050762;28;20244;-27
2023/09/04 01:36:57;;;;;;;1.90;1.80;;;;;;;24.55;68.45;98491.19;5040824;28;20585;-27
2023/09/04 01:39:27;;;;;;;2.13;1.90;;;;;;;24.61;67.98;98496.53;5011392;28;20680;-30
2023/09/04 01:41:53;;;;;;;2.00;1.90;;;;;;;24.53;67.92;98489.38;5030981;28;20635;-29
2023/09/04 01:44:20;;;;;;;2.20;2.00;;;;;;;24.61;68.56;98500.78;5050233;28;20251;-27
2023/09/04 01:46:46;;;;;;;2.10;2.00;;;;;;;24.62;68.46;98505.09;5045844;28;20418;-27
2023/09/04 01:49:13;;;;;;;2.03;1.93;;;;;;;24.61;68.18;98505.91;5026702;28;20598;-28
2023/09/04 01:51:40;;;;;;;2.00;1.90;;;;;;;24.62;68.09;98499.94;5041574;28;20678;-27
2023/09/04 01:54:07;;;;;;;2.00;1.90;;;;;;;24.63;68.32;98510.28;5046505;28;20222;-27
2023/09/04 01:56:34;;;;;;;1.80;1.70;;;;;;;24.63;68.28;98506.84;5042418;28;20255;-27
2023/09/04 01:59:00;;;;;;;1.97;1.70;;;;;;;24.64;68.38;98506.91;5053567;28;20213;-27
2023/09/04 02:01:28;;;;;;;1.90;1.80;;;;;;;24.64;67.98;98504.34;5053822;28;20263;-27
2023/09/04 02:03:56;;;;;;;1.70;1.60;;;;;;;24.64;68.44;98506.03;5048262;28;20759;-27
2023/09/04 02:06:23;;;;;;;1.80;1.70;;;;;;;24.64;68.21;98504.34;5048249;28;20641;-27
2023/09/04 02:08:49;;;;;;;1.90;1.80;;;;;;;24.65;68.13;98507.78;5049959;28;20221;-27
2023/09/04 02:11:16;;;;;;;2.27;1.80;;;;;;;24.64;68.13;98499.19;5042055;28;20198;-29
2023/09/04 02:13:45;;;;;;;2.00;1.80;;;;;;;24.64;68.62;98501.75;5051443;28;20299;-27
2023/09/04 02:16:12;;;;;;;2.30;2.10;;;;;;;24.64;68.16;98496.63;5054011;28;20384;-27
2023/09/04 02:18:39;;;;;;;2.17;1.97;;;;;;;24.65;68.04;98498.38;5053510;28;20312;-27
2023/09/04 02:21:06;;;;;;;1.70;1.60;;;;;;;24.64;68.05;98496.63;5052789;28;20227;-27
2023/09/04 02:23:32;;;;;;;1.90;1.80;;;;;;;24.64;68.20;98496.63;5048795;28;20197;-27
2023/09/04 02:25:59;;;;;;;2.00;1.90;;;;;;;24.65;68.16;98494.94;5053177;28;20210;-27
2023/09/04 02:28:25;;;;;;;2.00;1.90;;;;;;;24.65;68.14;98498.38;5040998;28;20297;-27
2023/09/04 02:30:52;;;;;;;1.83;1.73;;;;;;;24.66;68.30;98494.13;5051553;28;20201;-27
2023/09/04 02:33:19;;;;;;;1.90;1.80;;;;;;;24.66;67.93;98494.13;5047934;28;20221;-31
2023/09/04 02:35:45;;;;;;;1.93;1.80;;;;;;;24.66;68.18;98486.41;5044934;28;20201;-27
2023/09/04 02:38:12;;;;;;;1.90;1.80;;;;;;;24.58;68.22;98460.44;5052017;28;20650;-27
2023/09/04 02:40:38;;;;;;;2.00;1.90;;;;;;;24.63;68.37;98471.72;5038378;28;20557;-27
2023/09/04 02:43:05;;;;;;;2.00;1.90;;;;;;;24.66;68.42;98473.56;5046191;28;20198;-28
2023/09/04 02:45:34;;;;;;;2.00;1.90;;;;;;;24.65;68.48;98471.81;5053189;28;20202;-27
2023/09/04 02:48:01;;;;;;;1.90;1.80;;;;;;;24.65;68.65;98470.13;5044143;28;20225;-29
2023/09/04 02:50:28;;;;;;;2.07;1.97;;;;;;;24.66;68.08;98469.28;5047573;28;20205;-27
2023/09/04 02:52:54;;;;;;;2.20;2.00;;;;;;;24.66;68.52;98474.41;5046566;28;20263;-27
2023/09/04 02:55:21;;;;;;;2.10;1.90;;;;;;;24.63;68.60;98466.56;5052751;28;20776;-27
2023/09/04 02:57:47;;;;;;;2.00;1.80;;;;;;;24.64;68.38;98476.06;5052287;28;20212;-28
2023/09/04 03:00:14;;;;;;;2.10;2.00;;;;;;;24.66;68.67;98471.00;5051582;28;20634;-27
2023/09/04 03:02:41;;;;;;;2.37;2.17;;;;;;;24.67;68.34;98475.31;5052947;28;20251;-27
2023/09/04 03:05:08;;;;;;;2.37;2.17;;;;;;;24.66;68.23;98483.84;5052397;28;20694;-27
2023/09/04 03:07:35;;;;;;;2.10;1.90;;;;;;;24.66;68.39;98476.13;5051923;28;20220;-27
2023/09/04 03:10:02;;;;;;;2.17;2.00;;;;;;;24.66;68.41;98478.72;5037315;28;20271;-27
2023/09/04 03:12:32;;;;;;;2.20;2.00;;;;;;;24.65;68.70;98477.81;5051291;28;20200;-29
2023/09/04 03:15:00;;;;;;;2.20;2.00;;;;;;;24.65;68.39;98480.41;5046247;28;20741;-27
2023/09/04 03:17:27;;;;;;;2.03;1.93;;;;;;;24.66;68.51;98481.28;5044595;28;20228;-29
2023/09/04 03:19:56;;;;;;;2.33;2.20;;;;;;;24.65;68.39;98485.53;5051861;28;20615;-28
2023/09/04 03:22:23;;;;;;;2.10;2.00;;;;;;;24.66;68.47;98486.41;5052519;28;20197;-31
2023/09/04 03:24:50;;;;;;;2.40;2.30;;;;;;;24.64;68.49;98482.88;5044129;28;20663;-27
2023/09/04 03:27:16;;;;;;;2.20;2.10;;;;;;;24.62;68.43;98479.38;5052422;28;20599;-27
2023/09/04 03:29:43;;;;;;;2.03;1.87;;;;;;;24.65;68.22;98482.97;5044307;28;20292;-28
2023/09/04 03:32:09;;;;;;;2.10;2.00;;;;;;;24.65;68.66;98484.66;5049251;28;20197;-27
2023/09/04 03:34:37;;;;;;;2.30;2.10;;;;;;;24.65;68.57;98488.09;5051906;28;20662;-27
2023/09/04 03:37:04;;;;;;;2.20;2.10;;;;;;;24.67;68.75;98493.31;5050944;28;20641;-29
2023/09/04 03:39:34;;;;;;;2.07;1.97;;;;;;;24.66;68.38;98491.56;5049442;28;20248;-27
2023/09/04 03:42:01;;;;;;;2.03;1.93;;;;;;;24.67;68.50;98496.75;5047680;28;20307;-27
2023/09/04 03:44:28;;;;;;;2.53;2.40;;;;;;;24.66;68.25;98494.97;5042432;28;20190;-27
2023/09/04 03:46:54;;;;;;;2.17;2.07;;;;;;;24.65;68.56;98497.50;5043146;28;20243;-27
2023/09/04 03:49:21;;;;;;;2.40;2.20;;;;;;;24.67;68.11;98498.44;5050669;28;20217;-33
2023/09/04 03:51:48;;;;;;;2.10;2.00;;;;;;;24.66;68.13;98496.72;5039564;28;20197;-33
2023/09/04 03:54:14;;;;;;;2.50;2.30;;;;;;;24.67;68.13;98491.63;5033957;28;20220;-30
2023/09/04 03:56:41;;;;;;;2.80;2.20;;;;;;;24.60;68.41;98486.19;5050481;28;20568;-27
2023/09/04 03:59:07;;;;;;;2.23;2.10;;;;;;;24.69;67.93;98481.38;5051750;28;20303;-27
2023/09/04 04:01:34;;;;;;;2.43;2.23;;;;;;;24.70;68.43;98485.69;5051182;28;20228;-28
2023/09/04 04:04:01;;;;;;;2.23;2.13;;;;;;;24.71;68.19;98487.41;5033215;28;20300;-27
2023/09/04 04:06:28;;;;;;;2.20;2.10;;;;;;;24.71;68.32;98482.28;5032454;28;20228;-34
2023/09/04 04:08:54;;;;;;;2.50;2.30;;;;;;;24.71;68.28;98487.41;5032782;28;20282;-32
2023/09/04 04:11:21;;;;;;;2.30;2.10;;;;;;;24.70;67.85;98485.69;5018619;28;20290;-29
2023/09/04 04:13:48;;;;;;;2.30;2.10;;;;;;;24.71;68.03;98490.00;5032132;28;20221;-29
2023/09/04 04:16:15;;;;;;;2.20;2.07;;;;;;;24.71;67.83;98493.44;5035490;28;20645;-29
2023/09/04 04:18:41;;;;;;;2.30;2.20;;;;;;;24.71;68.14;98495.13;5015678;28;20247;-27
2023/09/04 04:21:08;;;;;;;2.17;2.07;;;;;;;24.72;68.21;98502.03;5032341;28;20213;-27
2023/09/04 04:23:35;;;;;;;2.50;2.30;;;;;;;24.72;68.00;98505.47;5033827;28;20267;-30
2023/09/04 04:26:01;;;;;;;2.27;2.10;;;;;;;24.72;67.99;98497.75;5033870;28;20294;-31
2023/09/04 04:28:28;;;;;;;2.30;2.20;;;;;;;24.71;67.97;98498.59;5031321;28;20245;-31
2023/09/04 04:30:57;;;;;;;2.40;2.00;;;;;;;24.74;67.63;98505.50;5031665;28;21523;-27
2023/09/04 04:33:23;;;;;;;2.67;2.47;;;;;;;24.73;68.18;98501.22;5032447;28;20201;-30
2023/09/04 04:35:53;;;;;;;2.37;2.27;;;;;;;24.74;67.61;98506.41;5032874;28;20792;-38
2023/09/04 04:38:20;;;;;;;2.50;2.30;;;;;;;24.73;68.11;98509.81;5017876;28;20232;-27
2023/09/04 04:40:48;;;;;;;3.03;2.37;;;;;;;24.75;68.00;98512.44;5033604;28;20835;-27
2023/09/04 04:43:15;;;;;;;2.50;2.30;;;;;;;24.74;68.11;98506.41;5047861;28;20256;-27
2023/09/04 04:45:42;;;;;;;2.27;2.00;;;;;;;24.67;68.21;98501.00;5047331;28;20866;-27
2023/09/04 04:48:08;;;;;;;2.60;2.40;;;;;;;24.74;67.68;98514.13;5038676;28;20716;-27
2023/09/04 04:50:35;;;;;;;2.50;2.30;;;;;;;24.73;66.36;98509.81;5042483;28;20212;-27
2023/09/04 04:53:03;;;;;;;3.10;2.60;;;;;;;24.74;65.86;98518.38;5039805;28;20205;-28
2023/09/04 04:55:29;;;;;;;3.17;2.87;;;;;;;24.71;64.81;98514.00;5038563;28;20639;-27
2023/09/04 04:57:56;;;;;;;4.20;2.80;;;;;;;24.74;64.40;98513.22;5034341;28;20291;-28
2023/09/04 05:00:22;;;;;;;3.00;2.70;;;;;;;24.73;63.83;98509.81;5050892;28;20299;-29
2023/09/04 05:02:49;;;;;;;3.20;2.90;;;;;;;24.73;64.09;98514.94;5051016;28;20197;-27
2023/09/04 05:05:16;;;;;;;2.93;2.73;;;;;;;24.72;64.19;98513.19;5049569;28;20193;-27
2023/09/04 05:07:43;;;;;;;3.20;3.00;;;;;;;24.72;64.17;98520.03;5044107;28;20661;-27
2023/09/04 05:10:10;;;;;;;3.43;2.90;;;;;;;24.72;63.64;98523.47;5048092;28;20679;-31
2023/09/04 05:12:36;;;;;;;3.60;3.10;;;;;;;24.72;63.86;98523.47;5038386;28;20208;-27
2023/09/04 05:15:05;;;;;;;3.30;3.00;;;;;;;24.73;63.68;98535.53;5051012;28;20291;-29
2023/09/04 05:17:31;;;;;;;3.43;3.13;;;;;;;24.72;63.79;98528.59;5042473;28;20244;-27
2023/09/04 05:19:58;;;;;;;3.40;3.10;;;;;;;24.72;63.68;98531.19;5050261;28;20259;-27
2023/09/04 05:22:24;;;;;;;3.13;2.80;;;;;;;24.74;63.75;98531.22;5041902;28;20288;-27
2023/09/04 05:24:51;;;;;;;5.67;4.20;;;;;;;24.69;56.31;98527.66;5043297;28;20216;-27
2023/09/04 05:27:17;;;;;;;4.30;3.90;;;;;;;24.54;56.47;98504.84;5049132;28;20590;-29
2023/09/04 05:29:44;;;;;;;5.93;4.30;;;;;;;24.58;55.52;98516.09;5045736;28;20223;-27
2023/09/04 05:32:11;;;;;;;4.60;4.20;;;;;;;24.54;55.07;98522.81;5053160;28;20266;-27
2023/09/04 05:34:39;;;;;;;4.23;3.90;;;;;;;24.49;54.57;98532.09;5052846;28;20216;-27
2023/09/04 05:37:09;;;;;;;4.70;4.30;;;;;;;24.43;54.71;98519.06;5052170;28;20201;-30
2023/09/04 05:39:36;;;;;;;7.93;4.20;;;;;;;24.38;54.98;98523.16;5051070;28;20205;-27
2023/09/04 05:42:03;;;;;;;6.73;4.43;;;;;;;24.32;55.09;98530.66;5053776;28;20216;-28
2023/09/04 05:44:30;;;;;;;4.97;4.10;;;;;;;24.27;54.73;98527.03;5052570;28;20208;-27
2023/09/04 05:46:56;;;;;;;4.67;3.87;;;;;;;24.22;54.42;98527.72;5047019;28;20650;-31
2023/09/04 05:49:23;;;;;;;3.97;3.57;;;;;;;24.16;54.48;98524.94;5050189;28;20236;-31
2023/09/04 05:51:49;;;;;;;5.27;4.77;;;;;;;24.09;54.90;98523.84;5045163;28;20258;-27
2023/09/04 05:54:16;;;;;;;4.40;4.00;;;;;;;24.08;55.09;98523.78;5048930;28;20224;-27
2023/09/04 05:56:43;;;;;;;4.93;4.37;;;;;;;24.03;55.21;98515.03;5048336;28;20270;-27
2023/09/04 05:59:10;;;;;;;5.77;4.47;;;;;;;24.01;55.28;98535.53;5036166;28;20221;-27
2023/09/04 06:01:36;;;;;;;8.87;5.37;;;;;;;24.00;55.39;98528.66;5051432;28;20667;-28
2023/09/04 06:04:03;;;;;;;10.77;5.03;;;;;;;23.96;55.38;98521.69;5048191;28;20233;-30
2023/09/04 06:06:30;;;;;;;4.83;4.33;;;;;;;23.95;55.45;98529.28;5039140;28;20218;-27
2023/09/04 06:08:56;;;;;;;5.87;4.60;;;;;;;23.92;55.07;98530.03;5044029;28;20221;-29
2023/09/04 06:11:23;;;;;;;5.53;4.37;;;;;;;23.87;55.60;98529.00;5045916;28;20259;-27
2023/09/04 06:13:49;;;;;;;6.77;4.80;;;;;;;23.84;55.59;98536.59;5046862;28;20727;-30
2023/09/04 06:16:19;;;;;;;5.73;4.50;;;;;;;23.82;55.94;98545.94;5041634;28;20256;-28
2023/09/04 06:18:45;;;;;;;7.03;4.40;;;;;;;23.58;55.74;98501.41;5048054;28;20220;-30
2023/09/04 06:21:12;;;;;;;5.93;4.20;;;;;;;23.77;55.73;98542.31;5044432;28;20737;-32
2023/09/04 06:23:39;;;;;;;5.70;4.00;;;;;;;23.76;56.05;98539.69;5047527;28;20568;-28
2023/09/04 06:26:07;;;;;;;4.73;4.30;;;;;;;23.72;56.20;98543.88;5048511;28;20207;-27
2023/09/04 06:28:34;;;;;;;12.37;4.70;;;;;;;23.70;56.49;98550.63;5053467;28;20707;-32
2023/09/04 06:31:01;;;;;;;4.83;4.03;;;;;;;23.69;56.73;98546.31;5053053;28;20197;-27
2023/09/04 06:33:29;;;;;;;4.23;3.83;;;;;;;23.70;56.98;98552.31;5051683;28;20201;-29
2023/09/04 06:35:57;;;;;;;4.60;4.20;;;;;;;23.69;57.12;98548.00;5033146;28;20216;-27
2023/09/04 06:38:24;;;;;;;4.73;3.77;;;;;;;23.71;57.07;98547.22;5060118;22;20316;-26
2023/09/04 06:40:57;;;;;;;6.63;4.00;;;;;;;23.71;57.06;98547.22;5046690;28;20208;-26
2023/09/04 06:43:27;;;;;;;5.53;3.90;;;;;;;23.72;57.25;98550.69;5051441;28;20263;-26
2023/09/04 06:45:54;;;;;;;4.43;4.00;;;;;;;23.74;57.54;98549.06;5043943;28;20196;-26
2023/09/04 06:48:21;;;;;;;4.80;4.27;;;;;;;23.75;57.57;98550.78;5050113;28;20252;-38
2023/09/04 06:50:49;;;;;;;5.37;4.13;;;;;;;23.75;58.04;98554.25;5050832;28;20231;-26
2023/09/04 06:53:16;;;;;;;5.63;4.20;;;;;;;23.71;57.88;98546.38;5050904;28;20699;-26
2023/09/04 06:55:43;;;;;;;6.03;4.20;;;;;;;23.77;58.12;98552.59;5050934;28;20217;-26
2023/09/04 06:58:10;;;;;;;4.70;4.30;;;;;;;23.77;58.20;98550.03;5051249;28;20220;-26
2023/09/04 07:00:36;;;;;;;4.40;4.00;;;;;;;23.78;58.37;98546.66;5050811;28;20201;-26
2023/09/04 07:03:04;;;;;;;5.13;4.40;;;;;;;23.79;58.31;98555.22;5049025;28;20312;-26
2023/09/04 07:05:31;;;;;;;5.73;4.10;;;;;;;23.80;58.45;98556.97;5050557;28;20197;-26
2023/09/04 07:07:58;;;;;;;6.57;4.77;;;;;;;23.82;58.73;98565.59;5052469;28;20256;-26
2023/09/04 07:10:24;;;;;;;4.97;3.80;;;;;;;23.82;58.58;98565.59;5050791;28;20284;-26
2023/09/04 07:12:51;;;;;;;5.20;4.00;;;;;;;23.82;58.62;98558.78;5052708;28;20204;-26
2023/09/04 07:15:18;;;;;;;4.50;4.10;;;;;;;23.84;58.75;98563.97;5031552;28;20220;-26
2023/09/04 07:17:45;;;;;;;5.00;4.47;;;;;;;23.84;58.84;98566.53;5052298;28;20255;-26
2023/09/04 07:20:12;;;;;;;4.70;4.30;;;;;;;23.84;59.05;98574.22;5049240;28;20208;-26
2023/09/04 07:22:38;;;;;;;5.63;4.30;;;;;;;23.85;59.26;98579.44;5052317;28;20233;-26
2023/09/04 07:25:05;;;;;;;4.50;4.03;;;;;;;23.82;59.26;98563.03;5052306;28;20232;-26
2023/09/04 07:27:32;;;;;;;5.73;4.20;;;;;;;23.87;59.37;98579.47;5052293;28;20197;-26
2023/09/04 07:29:59;;;;;;;4.73;4.33;;;;;;;23.88;59.67;98582.09;5052316;28;20243;-26
2023/09/04 07:32:26;;;;;;;4.40;4.00;;;;;;;23.87;59.72;98590.63;5052220;28;20299;-26
2023/09/04 07:34:56;;;;;;;4.90;4.20;;;;;;;23.88;59.84;98578.66;5051282;28;20239;-26
2023/09/04 07:37:25;;;;;;;8.80;4.77;;;;;;;23.88;60.07;98582.09;5034732;28;20209;-26
2023/09/04 07:39:52;;;;;;;5.80;4.37;;;;;;;23.90;59.87;98580.47;5051726;28;20259;-26
2023/09/04 07:42:19;;;;;;;5.43;4.17;;;;;;;23.91;59.80;98584.78;5051958;28;20197;-26
2023/09/04 07:44:45;;;;;;;9.30;4.20;;;;;;;23.94;59.97;98571.16;5051831;28;20279;-26
2023/09/04 07:47:12;;;;;;;5.07;4.50;;;;;;;23.95;59.84;98581.53;5058139;28;20228;-26
2023/09/04 07:49:38;;;;;;;7.27;4.77;;;;;;;23.96;60.33;98575.59;5051945;28;20225;-26
2023/09/04 07:52:05;;;;;;;4.97;4.47;;;;;;;24.01;60.50;98583.47;5053861;28;20235;-26
2023/09/04 07:54:32;;;;;;;4.60;4.20;;;;;;;24.03;60.33;98585.25;5051656;28;20200;-26
2023/09/04 07:57:01;;;;;;;6.57;4.13;;;;;;;24.04;60.38;98570.75;5045812;28;20209;-26
2023/09/04 07:59:28;;;;;;;4.40;4.00;;;;;;;24.07;60.62;98576.00;5051631;28;20229;-26
2023/09/04 08:01:54;;;;;;;4.57;4.00;;;;;;;24.02;60.74;98562.09;5051371;28;20284;-26
2023/09/04 08:04:21;;;;;;;4.47;4.03;;;;;;;24.11;60.65;98571.00;5050895;28;20683;-26
2023/09/04 08:06:47;;;;;;;4.23;3.93;;;;;;;24.13;60.63;98574.50;5051477;28;20225;-26
2023/09/04 08:09:15;;;;;;;4.20;3.70;;;;;;;24.15;60.67;98575.44;5051860;28;20224;-26
2023/09/04 08:11:41;;;;;;;6.10;4.10;;;;;;;24.17;60.86;98573.78;5051015;28;20287;-26
2023/09/04 08:14:08;;;;;;;4.73;4.13;;;;;;;24.18;60.44;98565.25;5051759;28;20204;-26
2023/09/04 08:16:34;;;;;;;4.27;3.87;;;;;;;24.20;60.42;98568.75;5051565;28;20216;-27
2023/09/04 08:19:01;;;;;;;4.00;3.70;;;;;;;24.23;60.90;98568.00;5056151;28;20225;-26
2023/09/04 08:21:28;;;;;;;4.43;4.07;;;;;;;24.24;61.00;98567.16;5050568;28;20200;-26
2023/09/04 08:23:54;;;;;;;4.17;3.77;;;;;;;24.25;60.70;98572.34;5050975;28;20663;-26
2023/09/04 08:26:21;;;;;;;4.23;3.83;;;;;;;24.27;60.89;98573.28;5047100;28;20224;-26
2023/09/04 08:28:48;;;;;;;4.63;4.23;;;;;;;24.27;60.50;98560.44;5050362;28;20220;-26
2023/09/04 08:31:14;;;;;;;4.57;4.20;;;;;;;24.30;60.72;98572.50;5049888;28;20205;-26
2023/09/04 08:33:41;;;;;;;4.20;3.87;;;;;;;24.30;60.75;98562.22;5046180;28;20197;-26
2023/09/04 08:36:08;;;;;;;5.17;3.80;;;;;;;24.31;60.69;98570.00;5049272;28;20235;-26
2023/09/04 08:38:34;;;;;;;4.30;3.90;;;;;;;24.33;61.09;98567.47;5046401;28;20232;-26
2023/09/04 08:41:07;;;;;;;4.03;3.63;;;;;;;24.34;61.54;98570.09;5047767;28;20467;-26
2023/09/04 08:43:35;;;;;;;4.13;3.73;;;;;;;24.36;61.49;98570.16;5048159;28;20201;-26
2023/09/04 08:46:03;;;;;;;4.17;3.77;;;;;;;24.36;61.69;98563.31;5048021;28;20928;-26
2023/09/04 08:48:34;;;;;;;4.53;3.70;;;;;;;24.37;61.56;98561.66;5015090;28;20228;-27
2023/09/04 08:51:01;;;;;;;4.07;3.70;;;;;;;24.38;61.53;98555.66;5013997;28;20250;-26
2023/09/04 08:53:27;;;;;;;5.00;3.50;;;;;;;24.37;61.56;98557.34;5030046;28;20291;-26
2023/09/04 08:55:54;;;;;;;5.77;3.67;;;;;;;24.37;61.85;98551.38;5029617;28;20948;-27
2023/09/04 08:58:21;;;;;;;5.50;4.10;;;;;;;24.37;61.86;98551.38;5027715;28;20221;-26
2023/09/04 09:00:48;;;;;;;4.27;3.87;;;;;;;24.38;62.02;98559.13;5047861;28;20204;-26
2023/09/04 09:03:14;;;;;;;3.93;3.60;;;;;;;24.39;61.94;98560.00;5031210;28;20228;-26
2023/09/04 09:05:47;;;;;;;3.80;3.40;;;;;;;24.38;61.57;98553.09;5037694;28;20228;-26
2023/09/04 09:08:17;;;;;;;3.63;3.33;;;;;;;24.35;61.75;98551.31;5049469;28;20290;-26
2023/09/04 09:10:46;;;;;;;3.90;3.60;;;;;;;24.38;61.72;98559.13;5034052;28;20305;-26
2023/09/04 09:13:13;;;;;;;4.07;3.70;;;;;;;24.38;62.00;98553.09;5043979;28;20201;-26
2023/09/04 09:15:40;;;;;;;4.90;3.53;;;;;;;24.38;61.75;98558.25;5048604;28;20320;-26
2023/09/04 09:18:07;;;;;;;4.30;3.90;;;;;;;24.39;61.58;98560.00;5017312;28;20530;-26
2023/09/04 09:20:39;;;;;;;3.80;3.50;;;;;;;24.39;61.91;98570.28;5050859;28;20232;-26
2023/09/04 09:23:05;;;;;;;4.50;3.77;;;;;;;24.40;61.63;98560.06;5043312;28;20605;-26
2023/09/04 09:25:32;;;;;;;4.00;3.70;;;;;;;24.39;61.83;98554.88;5050983;28;20270;-26
2023/09/04 09:28:04;;;;;;;4.07;3.70;;;;;;;24.36;61.66;98536.75;5052376;28;20239;-27
2023/09/04 09:30:37;;;;;;;4.07;3.67;;;;;;;24.40;61.62;98559.19;5051028;28;20599;-26
2023/09/04 09:33:12;;;;;;;4.10;3.70;;;;;;;24.41;61.97;98553.22;5045592;28;20217;-26
2023/09/04 09:35:40;;;;;;;3.47;3.20;;;;;;;24.41;61.75;98548.06;5050566;28;20221;-26
2023/09/04 09:38:07;;;;;;;3.90;3.60;;;;;;;24.42;61.58;98544.69;5050140;28;20315;-26
2023/09/04 09:40:33;;;;;;;3.77;3.37;;;;;;;24.42;61.51;98542.97;5051121;28;20201;-26
2023/09/04 09:43:00;;;;;;;3.83;3.50;;;;;;;24.42;61.98;98544.69;5051019;28;20335;-26
2023/09/04 09:45:34;;;;;;;5.97;3.77;;;;;;;24.43;61.97;98538.72;5050972;28;20199;-26
2023/09/04 09:48:05;;;;;;;4.23;3.83;;;;;;;24.44;61.73;98537.91;5051290;28;20314;-26
2023/09/04 09:50:32;;;;;;;3.70;3.40;;;;;;;24.44;61.59;98540.47;5051509;28;20235;-26
2023/09/04 09:53:02;;;;;;;3.63;3.33;;;;;;;24.40;61.68;98523.19;5022437;28;20300;-26
2023/09/04 09:55:31;;;;;;;3.60;3.23;;;;;;;24.44;61.72;98533.63;5047169;28;20237;-35
2023/09/04 09:57:58;;;;;;;5.07;3.37;;;;;;;24.44;62.18;98528.50;5045831;28;20235;-26
2023/09/04 10:00:26;;;;;;;3.80;3.50;;;;;;;24.45;61.82;98524.25;5042129;28;20264;-26
2023/09/04 10:02:53;;;;;;;3.73;3.03;;;;;;;24.45;62.00;98532.81;5047871;28;20239;-26
2023/09/04 10:05:24;;;;;;;3.53;3.17;;;;;;;24.45;61.79;98527.66;5046168;28;20254;-26
2023/09/04 10:08:01;;;;;;;3.50;3.20;;;;;;;24.45;61.69;98527.66;5046210;28;20625;-26
2023/09/04 10:10:35;;;;;;;3.60;3.30;;;;;;;24.42;61.91;98521.56;5050337;28;20646;-26
2023/09/04 10:13:15;;;;;;;3.70;3.40;;;;;;;24.42;61.69;98527.56;5012359;28;20698;-26
2023/09/04 10:15:43;;;;;;;3.30;3.10;;;;;;;24.38;61.87;98520.59;5025948;28;20227;-26
2023/09/04 10:18:29;;;;;;;3.87;3.57;;;;;;;24.44;61.75;98517.34;5016736;28;20327;-28
2023/09/04 10:20:57;;;;;;;4.10;3.70;;;;;;;24.43;61.90;98513.91;5031228;28;20675;-26
2023/09/04 10:23:24;;;;;;;3.67;3.37;;;;;;;24.43;62.05;98505.31;5030000;28;20209;-27
2023/09/04 10:26:00;;;;;;;3.80;3.50;;;;;;;24.44;61.63;98504.47;5031427;28;20251;-26
2023/09/04 10:28:36;;;;;;;3.33;3.10;;;;;;;24.44;61.71;98502.78;5029909;28;20659;-26
2023/09/04 10:31:11;;;;;;;3.50;3.30;;;;;;;24.44;62.23;98500.22;5049315;28;20230;-26
2023/09/04 10:33:38;;;;;;;3.20;3.00;;;;;;;24.45;62.26;98493.41;5031206;28;20244;-26
2023/09/04 10:36:05;;;;;;;3.30;3.00;;;;;;;24.44;62.13;98496.78;5050196;28;20220;-26
2023/09/04 10:38:31;;;;;;;3.33;3.10;;;;;;;24.30;62.00;98475.75;5050145;28;20275;-26
2023/09/04 10:40:58;;;;;;;3.37;3.10;;;;;;;24.43;62.19;98490.78;5032261;28;20208;-26
2023/09/04 10:43:46;;;;;;;3.43;3.20;;;;;;;24.45;61.86;98493.41;5032739;28;20502;-26
2023/09/04 10:46:13;;;;;;;4.30;2.97;;;;;;;24.45;62.08;98486.53;5049289;28;20678;-27
2023/09/04 10:48:58;;;;;;;3.40;3.10;;;;;;;24.37;61.97;98464.00;5050355;28;20232;-26
2023/09/04 10:51:28;;;;;;;3.20;2.97;;;;;;;24.46;62.25;98490.88;5031932;28;20205;-26
2023/09/04 10:54:24;;;;;;;3.63;3.10;;;;;;;24.47;62.09;98484.91;5049870;28;20564;-26
2023/09/04 10:56:55;;;;;;;3.50;3.20;;;;;;;24.47;62.42;98478.88;5046883;28;20341;-26
2023/09/04 10:59:22;;;;;;;3.10;2.80;;;;;;;24.47;61.97;98479.78;5050271;28;20363;-26
2023/09/04 11:01:48;;;;;;;3.40;3.10;;;;;;;24.47;62.01;98479.78;5050116;28;20224;-26
2023/09/04 11:04:33;;;;;;;3.63;3.33;;;;;;;24.48;62.40;98493.50;5049297;28;20689;-26
2023/09/04 11:07:19;;;;;;;3.73;3.37;;;;;;;24.48;62.07;98478.09;5046240;28;20219;-26
2023/09/04 11:09:51;;;;;;;3.50;3.20;;;;;;;24.48;62.26;98483.22;5044479;28;20577;-27
2023/09/04 11:12:24;;;;;;;3.33;2.93;;;;;;;24.48;62.17;98473.78;5031530;28;20250;-26
2023/09/04 11:14:52;;;;;;;3.37;3.07;;;;;;;24.50;62.40;98481.56;5049883;28;20769;-26
2023/09/04 11:17:38;;;;;;;3.60;3.30;;;;;;;24.50;62.37;98466.13;5047929;28;20228;-26
2023/09/04 11:20:06;;;;;;;3.10;2.90;;;;;;;24.50;62.12;98471.28;5044880;28;20204;-26
2023/09/04 11:22:33;;;;;;;3.90;3.20;;;;;;;24.50;62.32;98469.59;5045733;28;20201;-26
2023/09/04 11:25:00;;;;;;;3.03;2.83;;;;;;;24.49;62.01;98467.84;5048007;28;20208;-26
2023/09/04 11:27:27;;;;;;;3.23;3.00;;;;;;;24.49;62.42;98467.84;5046232;28;20197;-26
2023/09/04 11:29:54;;;;;;;3.30;3.10;;;;;;;24.48;62.19;98468.66;5041197;28;20301;-26
2023/09/04 11:32:21;;;;;;;3.37;3.17;;;;;;;24.49;61.92;98469.53;5042874;28;20197;-26
2023/09/04 11:34:49;;;;;;;3.30;3.10;;;;;;;24.48;61.90;98468.66;5040961;28;20197;-26
2023/09/04 11:37:16;;;;;;;3.60;3.30;;;;;;;24.47;62.29;98466.91;5045617;28;20769;-26